sensor_id;sensor_type;location;lat;lon;timestamp;pressure;altitude;pressure_sealevel;temperature;humidity
69796;BME280;57073;45.650;9.612;2023-07-31T00:04:09;98943.91;;;24.04;56.78
69796;BME280;57073;45.650;9.612;2023-07-31T00:09:10;98954.63;;;24.17;56.07
69796;BME280;57073;45.650;9.612;2023-07-31T00:14:10;98977.69;;;24.13;56.07
69796;BME280;57073;45.650;9.612;2023-07-31T00:19:11;98972.31;;;24.16;55.83
69796;BME280;57073;45.650;9.612;2023-07-31T00:24:11;98977.50;;;23.67;56.39
69796;BME280;57073;45.650;9.612;2023-07-31T00:29:11;98978.13;;;23.73;56.17
69796;BME280;57073;45.650;9.612;2023-07-31T00:34:12;98970.56;;;23.91;55.50
69796;BME280;57073;45.650;9.612;2023-07-31T00:39:12;98982.44;;;23.44;56.86
69796;BME280;57073;45.650;9.612;2023-07-31T00:44:12;98983.63;;;23.73;56.60
69796;BME280;57073;45.650;9.612;2023-07-31T00:49:13;98985.16;;;23.83;56.54
69796;BME280;57073;45.650;9.612;2023-07-31T00:54:13;98989.31;;;23.68;56.89
69796;BME280;57073;45.650;9.612;2023-07-31T00:59:14;98986.50;;;23.76;56.52
69796;BME280;57073;45.650;9.612;2023-07-31T01:04:15;98978.63;;;23.57;57.25
69796;BME280;57073;45.650;9.612;2023-07-31T01:09:32;98977.78;;;23.74;56.98
69796;BME280;57073;45.650;9.612;2023-07-31T01:14:36;98974.06;;;23.70;56.86
69796;BME280;57073;45.650;9.612;2023-07-31T01:19:36;98963.16;;;23.83;56.27
69796;BME280;57073;45.650;9.612;2023-07-31T01:24:55;98968.63;;;23.62;57.03
69796;BME280;57073;45.650;9.612;2023-07-31T01:30:03;98958.47;;;23.83;56.95
69796;BME280;57073;45.650;9.612;2023-07-31T01:35:10;98956.50;;;23.84;56.83
69796;BME280;57073;45.650;9.612;2023-07-31T01:40:11;98949.00;;;23.93;56.70
69796;BME280;57073;45.650;9.612;2023-07-31T01:45:11;98952.56;;;23.93;56.32
69796;BME280;57073;45.650;9.612;2023-07-31T01:50:12;98953.47;;;23.97;55.87
69796;BME280;57073;45.650;9.612;2023-07-31T01:55:12;98955.31;;;23.93;55.71
69796;BME280;57073;45.650;9.612;2023-07-31T02:00:13;98956.50;;;23.84;57.36
69796;BME280;57073;45.650;9.612;2023-07-31T02:05:13;98952.28;;;23.86;56.87
69796;BME280;57073;45.650;9.612;2023-07-31T02:10:14;98940.31;;;23.82;56.46
69796;BME280;57073;45.650;9.612;2023-07-31T02:15:14;98943.88;;;23.83;56.11
69796;BME280;57073;45.650;9.612;2023-07-31T02:20:14;98940.97;;;23.79;56.19
69796;BME280;57073;45.650;9.612;2023-07-31T02:25:15;98949.25;;;23.79;56.33
69796;BME280;57073;45.650;9.612;2023-07-31T02:30:15;98964.88;;;23.66;57.66
69796;BME280;57073;45.650;9.612;2023-07-31T02:35:16;98960.38;;;23.62;57.46
69796;BME280;57073;45.650;9.612;2023-07-31T02:40:16;98950.78;;;23.68;55.63
69796;BME280;57073;45.650;9.612;2023-07-31T02:45:17;98948.84;;;23.59;55.15
69796;BME280;57073;45.650;9.612;2023-07-31T02:50:17;98956.41;;;23.42;55.62
69796;BME280;57073;45.650;9.612;2023-07-31T02:55:18;98955.50;;;23.29;55.75
69796;BME280;57073;45.650;9.612;2023-07-31T03:00:18;98941.09;;;23.23;56.68
69796;BME280;57073;45.650;9.612;2023-07-31T03:05:19;98948.22;;;23.24;56.62
69796;BME280;57073;45.650;9.612;2023-07-31T03:10:19;98940.44;;;23.26;56.00
69796;BME280;57073;45.650;9.612;2023-07-31T03:15:19;98941.72;;;23.29;56.12
69796;BME280;57073;45.650;9.612;2023-07-31T03:20:20;98943.34;;;23.21;56.54
69796;BME280;57073;45.650;9.612;2023-07-31T03:25:20;98942.91;;;23.10;55.93
69796;BME280;57073;45.650;9.612;2023-07-31T03:30:20;98942.63;;;23.03;55.83
69796;BME280;57073;45.650;9.612;2023-07-31T03:35:21;98940.34;;;23.05;55.08
69796;BME280;57073;45.650;9.612;2023-07-31T03:40:21;98946.53;;;22.93;56.35
69796;BME280;57073;45.650;9.612;2023-07-31T03:45:22;98950.44;;;22.83;55.94
69796;BME280;57073;45.650;9.612;2023-07-31T03:50:22;98951.88;;;22.72;56.09
69796;BME280;57073;45.650;9.612;2023-07-31T03:55:23;98949.75;;;22.78;56.51
69796;BME280;57073;45.650;9.612;2023-07-31T04:00:23;98948.66;;;22.70;57.25
69796;BME280;57073;45.650;9.612;2023-07-31T04:05:23;98957.56;;;22.67;57.46
69796;BME280;57073;45.650;9.612;2023-07-31T04:10:24;98963.06;;;22.67;56.40
69796;BME280;57073;45.650;9.612;2023-07-31T04:15:24;98960.00;;;22.60;57.14
69796;BME280;57073;45.650;9.612;2023-07-31T04:20:25;98958.84;;;22.70;56.27
69796;BME280;57073;45.650;9.612;2023-07-31T04:25:25;98954.94;;;22.79;55.49
69796;BME280;57073;45.650;9.612;2023-07-31T04:30:25;98959.00;;;22.82;55.80
69796;BME280;57073;45.650;9.612;2023-07-31T04:35:26;98952.34;;;23.00;55.44
69796;BME280;57073;45.650;9.612;2023-07-31T04:40:26;98953.13;;;23.01;54.80
69796;BME280;57073;45.650;9.612;2023-07-31T04:45:27;98958.91;;;23.17;55.59
69796;BME280;57073;45.650;9.612;2023-07-31T04:50:27;98966.34;;;23.55;55.07
69796;BME280;57073;45.650;9.612;2023-07-31T04:55:27;98956.38;;;23.80;54.63
69796;BME280;57073;45.650;9.612;2023-07-31T05:00:28;98974.63;;;23.85;54.01
69796;BME280;57073;45.650;9.612;2023-07-31T05:05:28;98981.66;;;23.73;55.08
69796;BME280;57073;45.650;9.612;2023-07-31T05:10:28;98980.75;;;23.90;54.35
69796;BME280;57073;45.650;9.612;2023-07-31T05:15:29;98999.34;;;23.93;53.52
69796;BME280;57073;45.650;9.612;2023-07-31T05:20:29;99005.06;;;23.88;53.16
69796;BME280;57073;45.650;9.612;2023-07-31T05:25:30;99020.00;;;24.08;53.16
69796;BME280;57073;45.650;9.612;2023-07-31T05:30:30;99013.56;;;24.04;52.97
69796;BME280;57073;45.650;9.612;2023-07-31T05:35:31;99019.41;;;24.32;52.91
69796;BME280;57073;45.650;9.612;2023-07-31T05:40:34;99015.28;;;24.39;52.50
69796;BME280;57073;45.650;9.612;2023-07-31T05:45:35;99019.63;;;24.61;51.87
69796;BME280;57073;45.650;9.612;2023-07-31T05:50:36;99026.72;;;24.83;51.50
69796;BME280;57073;45.650;9.612;2023-07-31T05:55:39;99013.59;;;24.67;50.83
69796;BME280;57073;45.650;9.612;2023-07-31T06:00:39;99009.94;;;24.97;49.87
69796;BME280;57073;45.650;9.612;2023-07-31T06:05:41;99015.81;;;24.86;49.47
69796;BME280;57073;45.650;9.612;2023-07-31T06:10:41;99011.44;;;24.94;49.88
69796;BME280;57073;45.650;9.612;2023-07-31T06:15:42;99022.84;;;25.05;49.03
69796;BME280;57073;45.650;9.612;2023-07-31T06:20:42;99018.38;;;25.13;49.18
69796;BME280;57073;45.650;9.612;2023-07-31T06:25:44;99021.34;;;25.07;49.70
69796;BME280;57073;45.650;9.612;2023-07-31T06:30:44;99029.94;;;25.06;49.86
69796;BME280;57073;45.650;9.612;2023-07-31T06:35:45;99026.69;;;25.25;50.08
69796;BME280;57073;45.650;9.612;2023-07-31T06:40:45;99030.38;;;25.41;49.34
69796;BME280;57073;45.650;9.612;2023-07-31T06:45:46;99037.63;;;25.46;48.98
69796;BME280;57073;45.650;9.612;2023-07-31T06:50:48;99040.78;;;25.57;48.80
69796;BME280;57073;45.650;9.612;2023-07-31T06:55:48;99033.25;;;25.33;49.03
69796;BME280;57073;45.650;9.612;2023-07-31T07:00:51;99037.22;;;25.10;48.97
69796;BME280;57073;45.650;9.612;2023-07-31T07:05:52;99042.47;;;25.03;49.48
69796;BME280;57073;45.650;9.612;2023-07-31T07:10:52;99052.13;;;25.09;50.01
69796;BME280;57073;45.650;9.612;2023-07-31T07:15:53;99049.72;;;25.08;49.04
69796;BME280;57073;45.650;9.612;2023-07-31T07:20:54;99018.81;;;25.15;48.47
69796;BME280;57073;45.650;9.612;2023-07-31T07:25:54;99024.09;;;25.90;48.65
69796;BME280;57073;45.650;9.612;2023-07-31T07:30:54;99036.75;;;26.03;47.06
69796;BME280;57073;45.650;9.612;2023-07-31T07:35:55;99042.50;;;26.23;47.12
69796;BME280;57073;45.650;9.612;2023-07-31T07:40:55;99050.91;;;26.39;47.23
69796;BME280;57073;45.650;9.612;2023-07-31T07:45:55;99036.19;;;26.63;46.59
69796;BME280;57073;45.650;9.612;2023-07-31T07:50:56;99035.94;;;26.96;46.29
69796;BME280;57073;45.650;9.612;2023-07-31T07:55:56;99046.00;;;27.33;46.00
69796;BME280;57073;45.650;9.612;2023-07-31T08:00:56;99041.59;;;27.92;43.33
69796;BME280;57073;45.650;9.612;2023-07-31T08:06:01;99048.09;;;28.00;42.55
69796;BME280;57073;45.650;9.612;2023-07-31T08:11:01;99050.69;;;27.76;42.32
69796;BME280;57073;45.650;9.612;2023-07-31T08:16:03;99047.47;;;27.74;42.45
69796;BME280;57073;45.650;9.612;2023-07-31T08:21:04;99049.44;;;27.74;40.66
69796;BME280;57073;45.650;9.612;2023-07-31T08:26:05;99052.38;;;27.81;41.78
69796;BME280;57073;45.650;9.612;2023-07-31T08:31:05;99045.88;;;27.89;41.80
69796;BME280;57073;45.650;9.612;2023-07-31T08:36:06;99036.41;;;27.74;41.10
69796;BME280;57073;45.650;9.612;2023-07-31T08:41:06;99040.88;;;27.63;40.22
69796;BME280;57073;45.650;9.612;2023-07-31T08:46:06;99035.84;;;27.85;39.95
69796;BME280;57073;45.650;9.612;2023-07-31T08:51:07;99013.00;;;27.56;40.41
69796;BME280;57073;45.650;9.612;2023-07-31T08:56:07;99014.50;;;28.37;40.58
69796;BME280;57073;45.650;9.612;2023-07-31T09:01:08;99022.03;;;28.75;40.90
69796;BME280;57073;45.650;9.612;2023-07-31T09:06:09;99030.28;;;28.52;38.35
69796;BME280;57073;45.650;9.612;2023-07-31T09:11:10;99027.38;;;28.29;38.96
69796;BME280;57073;45.650;9.612;2023-07-31T09:16:12;99028.75;;;28.55;39.13
69796;BME280;57073;45.650;9.612;2023-07-31T09:21:12;99032.28;;;28.94;38.56
69796;BME280;57073;45.650;9.612;2023-07-31T09:31:39;99029.72;;;28.27;38.02
69796;BME280;57073;45.650;9.612;2023-07-31T09:36:43;99040.06;;;29.04;38.79
69796;BME280;57073;45.650;9.612;2023-07-31T09:41:48;99034.28;;;28.94;37.89
69796;BME280;57073;45.650;9.612;2023-07-31T09:46:53;99032.19;;;29.29;38.59
69796;BME280;57073;45.650;9.612;2023-07-31T09:51:53;99024.81;;;28.56;38.68
69796;BME280;57073;45.650;9.612;2023-07-31T09:56:54;99025.09;;;28.70;38.71
69796;BME280;57073;45.650;9.612;2023-07-31T10:01:56;99025.53;;;29.11;38.48
69796;BME280;57073;45.650;9.612;2023-07-31T10:06:57;99013.69;;;29.60;38.75
69796;BME280;57073;45.650;9.612;2023-07-31T10:12:02;99014.59;;;29.45;38.32
69796;BME280;57073;45.650;9.612;2023-07-31T10:17:06;99017.69;;;29.17;39.37
69796;BME280;57073;45.650;9.612;2023-07-31T10:22:07;99006.59;;;29.17;39.33
69796;BME280;57073;45.650;9.612;2023-07-31T10:27:09;99003.41;;;28.56;39.21
69796;BME280;57073;45.650;9.612;2023-07-31T10:32:11;99004.06;;;28.69;39.15
69796;BME280;57073;45.650;9.612;2023-07-31T10:42:38;98992.50;;;28.86;40.86
69796;BME280;57073;45.650;9.612;2023-07-31T10:47:45;98995.50;;;29.40;41.28
69796;BME280;57073;45.650;9.612;2023-07-31T10:52:51;98992.34;;;29.18;39.50
69796;BME280;57073;45.650;9.612;2023-07-31T10:57:53;98988.69;;;29.14;40.01
69796;BME280;57073;45.650;9.612;2023-07-31T11:03:16;98991.00;;;28.69;41.83
69796;BME280;57073;45.650;9.612;2023-07-31T11:08:24;98987.66;;;29.03;39.70
69796;BME280;57073;45.650;9.612;2023-07-31T11:13:25;98985.97;;;29.18;40.53
69796;BME280;57073;45.650;9.612;2023-07-31T11:18:28;98987.25;;;28.81;42.36
69796;BME280;57073;45.650;9.612;2023-07-31T11:23:28;98982.00;;;28.76;40.46
69796;BME280;57073;45.650;9.612;2023-07-31T11:28:34;98981.84;;;28.30;40.04
69796;BME280;57073;45.650;9.612;2023-07-31T11:33:35;98963.53;;;28.45;39.14
69796;BME280;57073;45.650;9.612;2023-07-31T11:38:35;98958.06;;;28.87;40.12
69796;BME280;57073;45.650;9.612;2023-07-31T11:43:36;98950.88;;;28.86;39.58
69796;BME280;57073;45.650;9.612;2023-07-31T11:48:37;98950.13;;;29.32;40.52
69796;BME280;57073;45.650;9.612;2023-07-31T11:53:43;98935.94;;;29.14;39.38
69796;BME280;57073;45.650;9.612;2023-07-31T11:58:49;98931.63;;;28.51;39.75
69796;BME280;57073;45.650;9.612;2023-07-31T12:03:50;98937.78;;;28.05;40.08
69796;BME280;57073;45.650;9.612;2023-07-31T12:08:51;98932.13;;;28.57;39.36
69796;BME280;57073;45.650;9.612;2023-07-31T12:13:51;98916.91;;;28.31;41.42
69796;BME280;57073;45.650;9.612;2023-07-31T12:18:52;98901.59;;;28.80;39.76
69796;BME280;57073;45.650;9.612;2023-07-31T12:23:52;98900.28;;;28.93;39.56
69796;BME280;57073;45.650;9.612;2023-07-31T12:28:54;98894.56;;;28.43;39.74
69796;BME280;57073;45.650;9.612;2023-07-31T12:33:55;98882.56;;;28.36;40.66
69796;BME280;57073;45.650;9.612;2023-07-31T12:38:56;98881.13;;;28.03;40.46
69796;BME280;57073;45.650;9.612;2023-07-31T12:43:58;98865.13;;;28.55;39.39
69796;BME280;57073;45.650;9.612;2023-07-31T12:48:58;98859.38;;;28.67;40.29
69796;BME280;57073;45.650;9.612;2023-07-31T12:53:59;98853.63;;;28.13;40.90
69796;BME280;57073;45.650;9.612;2023-07-31T12:58:59;98842.97;;;28.15;40.97
69796;BME280;57073;45.650;9.612;2023-07-31T13:03:59;98838.38;;;28.04;39.75
69796;BME280;57073;45.650;9.612;2023-07-31T13:09:00;98836.00;;;28.25;40.03
69796;BME280;57073;45.650;9.612;2023-07-31T13:14:00;98829.75;;;28.09;41.61
69796;BME280;57073;45.650;9.612;2023-07-31T13:19:01;98821.56;;;28.36;39.90
69796;BME280;57073;45.650;9.612;2023-07-31T13:24:02;98826.47;;;28.23;41.01
69796;BME280;57073;45.650;9.612;2023-07-31T13:29:02;98818.50;;;28.41;40.57
69796;BME280;57073;45.650;9.612;2023-07-31T13:34:03;98820.13;;;28.22;40.67
69796;BME280;57073;45.650;9.612;2023-07-31T13:39:03;98817.63;;;28.37;39.62
69796;BME280;57073;45.650;9.612;2023-07-31T13:44:04;98813.97;;;28.52;40.08
69796;BME280;57073;45.650;9.612;2023-07-31T13:49:05;98816.94;;;28.43;40.60
69796;BME280;57073;45.650;9.612;2023-07-31T13:54:05;98811.25;;;28.36;41.02
69796;BME280;57073;45.650;9.612;2023-07-31T13:59:07;98804.44;;;27.91;41.92
69796;BME280;57073;45.650;9.612;2023-07-31T14:04:07;98800.66;;;28.19;41.36
69796;BME280;57073;45.650;9.612;2023-07-31T14:09:07;98800.72;;;28.22;40.59
69796;BME280;57073;45.650;9.612;2023-07-31T14:14:09;98784.63;;;28.08;40.26
69796;BME280;57073;45.650;9.612;2023-07-31T14:19:10;98784.16;;;28.26;39.34
69796;BME280;57073;45.650;9.612;2023-07-31T14:24:11;98789.22;;;28.43;40.64
69796;BME280;57073;45.650;9.612;2023-07-31T14:29:11;98780.69;;;28.09;40.46
69796;BME280;57073;45.650;9.612;2023-07-31T14:34:12;98774.88;;;27.95;41.61
69796;BME280;57073;45.650;9.612;2023-07-31T14:39:12;98763.63;;;28.30;40.01
69796;BME280;57073;45.650;9.612;2023-07-31T14:44:13;98755.94;;;28.43;40.67
69796;BME280;57073;45.650;9.612;2023-07-31T14:49:14;98760.09;;;28.53;41.64
69796;BME280;57073;45.650;9.612;2023-07-31T14:54:14;98758.78;;;28.70;41.28
69796;BME280;57073;45.650;9.612;2023-07-31T14:59:15;98747.34;;;28.48;40.68
69796;BME280;57073;45.650;9.612;2023-07-31T15:04:15;98758.06;;;28.50;40.70
69796;BME280;57073;45.650;9.612;2023-07-31T15:09:16;98749.28;;;28.25;41.06
69796;BME280;57073;45.650;9.612;2023-07-31T15:14:16;98744.97;;;28.04;41.55
69796;BME280;57073;45.650;9.612;2023-07-31T15:19:17;98735.38;;;28.44;39.94
69796;BME280;57073;45.650;9.612;2023-07-31T15:24:17;98734.50;;;28.40;41.01
69796;BME280;57073;45.650;9.612;2023-07-31T15:29:18;98733.28;;;28.61;41.02
69796;BME280;57073;45.650;9.612;2023-07-31T15:34:19;98719.22;;;28.27;40.27
69796;BME280;57073;45.650;9.612;2023-07-31T15:39:20;98716.69;;;28.18;40.41
69796;BME280;57073;45.650;9.612;2023-07-31T15:44:21;98705.59;;;28.18;40.99
69796;BME280;57073;45.650;9.612;2023-07-31T15:49:21;98700.31;;;28.56;41.14
69796;BME280;57073;45.650;9.612;2023-07-31T15:54:22;98699.63;;;28.39;41.45
69796;BME280;57073;45.650;9.612;2023-07-31T15:59:22;98698.59;;;28.47;41.62
69796;BME280;57073;45.650;9.612;2023-07-31T16:04:23;98690.16;;;28.40;40.62
69796;BME280;57073;45.650;9.612;2023-07-31T16:09:24;98679.91;;;28.44;40.48
69796;BME280;57073;45.650;9.612;2023-07-31T16:14:24;98678.44;;;28.50;40.51
69796;BME280;57073;45.650;9.612;2023-07-31T16:19:25;98674.44;;;28.48;39.99
69796;BME280;57073;45.650;9.612;2023-07-31T16:24:25;98670.75;;;28.40;41.13
69796;BME280;57073;45.650;9.612;2023-07-31T16:29:26;98671.16;;;28.42;41.25
69796;BME280;57073;45.650;9.612;2023-07-31T16:34:26;98666.84;;;28.22;41.93
69796;BME280;57073;45.650;9.612;2023-07-31T16:39:27;98662.81;;;28.15;41.35
69796;BME280;57073;45.650;9.612;2023-07-31T16:44:27;98664.53;;;28.24;40.84
69796;BME280;57073;45.650;9.612;2023-07-31T16:49:28;98663.03;;;28.30;41.77
69796;BME280;57073;45.650;9.612;2023-07-31T16:54:28;98672.28;;;28.14;41.11
69796;BME280;57073;45.650;9.612;2023-07-31T16:59:29;98669.72;;;28.02;40.74
69796;BME280;57073;45.650;9.612;2023-07-31T17:04:29;98669.97;;;27.93;40.58
69796;BME280;57073;45.650;9.612;2023-07-31T17:09:31;98674.69;;;28.16;41.63
69796;BME280;57073;45.650;9.612;2023-07-31T17:14:31;98679.28;;;27.85;42.10
69796;BME280;57073;45.650;9.612;2023-07-31T17:19:31;98682.31;;;28.00;42.25
69796;BME280;57073;45.650;9.612;2023-07-31T17:24:32;98689.19;;;27.86;42.98
69796;BME280;57073;45.650;9.612;2023-07-31T17:29:32;98689.53;;;28.04;41.88
69796;BME280;57073;45.650;9.612;2023-07-31T17:34:32;98696.53;;;27.98;42.57
69796;BME280;57073;45.650;9.612;2023-07-31T17:39:33;98698.13;;;27.56;43.76
69796;BME280;57073;45.650;9.612;2023-07-31T17:44:33;98693.53;;;27.45;43.25
69796;BME280;57073;45.650;9.612;2023-07-31T17:49:33;98706.13;;;27.62;42.80
69796;BME280;57073;45.650;9.612;2023-07-31T17:54:34;98706.53;;;27.41;44.54
69796;BME280;57073;45.650;9.612;2023-07-31T17:59:34;98712.28;;;27.51;43.98
69796;BME280;57073;45.650;9.612;2023-07-31T18:04:35;98719.25;;;27.45;44.08
69796;BME280;57073;45.650;9.612;2023-07-31T18:09:35;98710.22;;;27.48;44.01
69796;BME280;57073;45.650;9.612;2023-07-31T18:14:37;98715.25;;;27.43;44.03
69796;BME280;57073;45.650;9.612;2023-07-31T18:19:39;98720.91;;;27.30;44.84
69796;BME280;57073;45.650;9.612;2023-07-31T18:24:40;98723.53;;;27.23;45.08
69796;BME280;57073;45.650;9.612;2023-07-31T18:29:40;98723.56;;;27.07;46.01
69796;BME280;57073;45.650;9.612;2023-07-31T18:34:41;98720.66;;;27.19;45.70
69796;BME280;57073;45.650;9.612;2023-07-31T18:39:41;98727.81;;;26.85;46.93
69796;BME280;57073;45.650;9.612;2023-07-31T18:44:41;98732.69;;;27.08;46.30
69796;BME280;57073;45.650;9.612;2023-07-31T18:49:42;98737.66;;;27.02;46.29
69796;BME280;57073;45.650;9.612;2023-07-31T18:54:42;98744.84;;;26.87;46.43
69796;BME280;57073;45.650;9.612;2023-07-31T18:59:43;98749.16;;;26.85;46.38
69796;BME280;57073;45.650;9.612;2023-07-31T19:04:43;98748.22;;;26.96;45.77
69796;BME280;57073;45.650;9.612;2023-07-31T19:09:43;98750.47;;;26.91;45.81
69796;BME280;57073;45.650;9.612;2023-07-31T19:14:44;98755.13;;;26.87;45.76
69796;BME280;57073;45.650;9.612;2023-07-31T19:19:44;98753.44;;;26.66;46.04
69796;BME280;57073;45.650;9.612;2023-07-31T19:24:44;98749.22;;;26.72;45.60
69796;BME280;57073;45.650;9.612;2023-07-31T19:29:45;98760.28;;;26.72;45.83
69796;BME280;57073;45.650;9.612;2023-07-31T19:34:45;98761.53;;;26.91;45.30
69796;BME280;57073;45.650;9.612;2023-07-31T19:39:45;98765.31;;;26.83;45.37
69796;BME280;57073;45.650;9.612;2023-07-31T19:44:47;98765.91;;;26.92;45.88
69796;BME280;57073;45.650;9.612;2023-07-31T19:49:48;98758.53;;;26.48;45.89
69796;BME280;57073;45.650;9.612;2023-07-31T19:54:48;98748.16;;;26.45;45.70
69796;BME280;57073;45.650;9.612;2023-07-31T19:59:48;98744.25;;;26.46;46.10
69796;BME280;57073;45.650;9.612;2023-07-31T20:04:49;98735.78;;;26.39;45.98
69796;BME280;57073;45.650;9.612;2023-07-31T20:09:49;98742.38;;;26.34;46.66
69796;BME280;57073;45.650;9.612;2023-07-31T20:14:51;98730.53;;;26.34;47.14
69796;BME280;57073;45.650;9.612;2023-07-31T20:19:54;98728.75;;;26.13;47.92
69796;BME280;57073;45.650;9.612;2023-07-31T20:24:55;98715.56;;;25.91;48.75
69796;BME280;57073;45.650;9.612;2023-07-31T20:29:55;98717.22;;;26.23;48.17
69796;BME280;57073;45.650;9.612;2023-07-31T20:34:55;98719.50;;;25.61;49.73
69796;BME280;57073;45.650;9.612;2023-07-31T20:39:58;98718.28;;;25.75;49.29
69796;BME280;57073;45.650;9.612;2023-07-31T20:44:59;98722.41;;;25.81;49.48
69796;BME280;57073;45.650;9.612;2023-07-31T20:49:59;98717.59;;;25.78;49.57
69796;BME280;57073;45.650;9.612;2023-07-31T20:54:59;98708.41;;;25.74;49.97
69796;BME280;57073;45.650;9.612;2023-07-31T21:00:00;98719.06;;;25.75;49.73
69796;BME280;57073;45.650;9.612;2023-07-31T21:05:00;98710.53;;;25.80;49.36
69796;BME280;57073;45.650;9.612;2023-07-31T21:10:01;98710.69;;;25.72;49.57
69796;BME280;57073;45.650;9.612;2023-07-31T21:15:10;98702.84;;;25.58;49.72
69796;BME280;57073;45.650;9.612;2023-07-31T21:20:11;98704.31;;;25.55;49.71
69796;BME280;57073;45.650;9.612;2023-07-31T21:25:12;98713.66;;;25.51;49.41
69796;BME280;57073;45.650;9.612;2023-07-31T21:30:12;98697.44;;;25.49;49.48
69796;BME280;57073;45.650;9.612;2023-07-31T21:35:12;98693.66;;;25.54;50.12
69796;BME280;57073;45.650;9.612;2023-07-31T21:40:13;98704.19;;;25.52;49.97
69796;BME280;57073;45.650;9.612;2023-07-31T21:45:13;98706.16;;;25.51;50.11
69796;BME280;57073;45.650;9.612;2023-07-31T21:50:14;98696.78;;;25.40;51.19
69796;BME280;57073;45.650;9.612;2023-07-31T21:55:14;98685.63;;;25.36;50.90
69796;BME280;57073;45.650;9.612;2023-07-31T22:00:15;98693.25;;;25.27;51.30
69796;BME280;57073;45.650;9.612;2023-07-31T22:05:16;98684.13;;;25.10;51.56
69796;BME280;57073;45.650;9.612;2023-07-31T22:10:16;98689.44;;;25.03;51.11
69796;BME280;57073;45.650;9.612;2023-07-31T22:15:16;98682.41;;;25.06;50.89
69796;BME280;57073;45.650;9.612;2023-07-31T22:20:17;98675.31;;;24.68;52.11
69796;BME280;57073;45.650;9.612;2023-07-31T22:25:17;98655.91;;;24.64;51.54
69796;BME280;57073;45.650;9.612;2023-07-31T22:30:18;98657.13;;;24.79;51.04
69796;BME280;57073;45.650;9.612;2023-07-31T22:35:18;98660.25;;;24.78;50.73
69796;BME280;57073;45.650;9.612;2023-07-31T22:40:18;98639.63;;;24.47;51.33
69796;BME280;57073;45.650;9.612;2023-07-31T22:45:19;98633.75;;;24.24;51.98
69796;BME280;57073;45.650;9.612;2023-07-31T22:50:19;98649.25;;;24.28;52.37
69796;BME280;57073;45.650;9.612;2023-07-31T22:55:19;98643.75;;;24.28;52.08
69796;BME280;57073;45.650;9.612;2023-07-31T23:00:20;98646.06;;;24.39;52.07
69796;BME280;57073;45.650;9.612;2023-07-31T23:05:20;98638.25;;;24.28;52.07
69796;BME280;57073;45.650;9.612;2023-07-31T23:10:21;98631.00;;;24.24;52.52
69796;BME280;57073;45.650;9.612;2023-07-31T23:15:21;98629.53;;;24.26;52.63
69796;BME280;57073;45.650;9.612;2023-07-31T23:20:21;98621.03;;;24.31;51.71
69796;BME280;57073;45.650;9.612;2023-07-31T23:25:22;98599.44;;;24.09;53.46
69796;BME280;57073;45.650;9.612;2023-07-31T23:30:22;98583.34;;;23.86;54.00
69796;BME280;57073;45.650;9.612;2023-07-31T23:35:22;98587.13;;;23.94;53.43
69796;BME280;57073;45.650;9.612;2023-07-31T23:40:24;98578.75;;;23.90;53.30
69796;BME280;57073;45.650;9.612;2023-07-31T23:45:25;98577.84;;;23.99;53.57
69796;BME280;57073;45.650;9.612;2023-07-31T23:50:25;98578.44;;;24.04;53.56
69796;BME280;57073;45.650;9.612;2023-07-31T23:55:26;98579.00;;;24.22;52.65
